createdAt,value
2019-04-13T00:00:55.881Z,14.40
2019-04-13T00:03:25.909Z,16.40
2019-04-13T00:06:14.568Z,16.60
2019-04-13T00:08:44.367Z,16.40
2019-04-13T00:11:33.218Z,15.60
2019-04-13T00:14:03.548Z,17.10
2019-04-13T00:16:33.772Z,16.70
2019-04-13T00:19:03.790Z,16.77
2019-04-13T00:21:33.712Z,19.53
2019-04-13T00:24:03.312Z,15.33
2019-04-13T00:26:33.733Z,13.37
2019-04-13T00:29:03.855Z,16.20
2019-04-13T00:31:33.873Z,13.07
2019-04-13T00:34:04.712Z,16.70
2019-04-13T00:36:34.520Z,13.37
2019-04-13T00:39:07.404Z,17.70
2019-04-13T00:41:37.750Z,16.60
2019-04-13T00:44:08.769Z,16.80
2019-04-13T00:46:38.677Z,17.47
2019-04-13T00:49:08.806Z,17.83
2019-04-13T00:51:38.718Z,17.90
2019-04-13T00:54:08.947Z,18.27
2019-04-13T00:56:38.748Z,17.53
2019-04-13T00:59:08.766Z,16.17
2019-04-13T01:01:38.576Z,19.63
2019-04-13T01:04:08.746Z,20.27
2019-04-13T01:06:38.716Z,25.60
2019-04-13T01:09:09.759Z,24.10
2019-04-13T01:11:39.776Z,22.27
2019-04-13T01:14:09.788Z,20.23
2019-04-13T01:16:39.909Z,22.43
2019-04-13T01:19:10.548Z,25.87
2019-04-13T01:21:41.166Z,21.47
2019-04-13T01:24:10.987Z,25.53
2019-04-13T01:26:41.197Z,25.80
2019-04-13T01:29:11.213Z,25.10
2019-04-13T01:31:41.336Z,23.77
2019-04-13T01:34:11.456Z,23.03
2019-04-13T01:36:41.569Z,23.43
2019-04-13T01:39:11.801Z,21.43
2019-04-13T01:41:41.910Z,24.47
2019-04-13T01:44:11.827Z,23.27
2019-04-13T01:46:41.848Z,21.07
2019-04-13T01:49:11.857Z,25.80
2019-04-13T01:51:42.075Z,28.93
2019-04-13T01:54:12.187Z,24.77
2019-04-13T01:56:42.521Z,25.40
2019-04-13T01:59:12.536Z,22.67
2019-04-13T02:02:01.410Z,23.80
2019-04-13T02:04:49.965Z,22.93
2019-04-13T02:07:38.917Z,21.30
2019-04-13T02:10:12.822Z,25.83
2019-04-13T02:12:42.525Z,23.23
2019-04-13T02:15:12.957Z,23.27
2019-04-13T02:17:43.276Z,21.17
2019-04-13T02:20:15.556Z,23.80
2019-04-13T02:22:45.766Z,24.13
2019-04-13T02:25:15.897Z,24.50
2019-04-13T02:27:46.517Z,21.67
2019-04-13T02:30:17.767Z,24.13
2019-04-13T02:32:47.573Z,25.13
2019-04-13T02:35:33.890Z,19.37
2019-04-13T02:37:51.913Z,22.23
2019-04-13T02:40:22.958Z,20.83
2019-04-13T02:42:53.579Z,20.17
2019-04-13T02:45:24.009Z,22.93
2019-04-13T02:47:53.816Z,22.57
2019-04-13T02:50:23.530Z,20.20
2019-04-13T02:52:53.536Z,20.73
2019-04-13T02:55:23.761Z,22.70
2019-04-13T02:57:53.888Z,22.07
2019-04-13T03:00:24.179Z,26.07
2019-04-13T03:02:54.737Z,21.13
2019-04-13T03:05:24.745Z,21.10
2019-04-13T03:07:54.765Z,19.60
2019-04-13T03:10:24.781Z,20.00
2019-04-13T03:12:55.106Z,21.73
2019-04-13T03:15:30.756Z,21.30
2019-04-13T03:18:06.617Z,21.90
2019-04-13T03:20:36.732Z,26.23
2019-04-13T03:23:06.850Z,23.73
2019-04-13T03:25:37.898Z,22.47
2019-04-13T03:28:08.417Z,20.67
2019-04-13T03:30:41.200Z,22.13
2019-04-13T03:33:11.431Z,21.23
2019-04-13T03:35:42.893Z,18.53
2019-04-13T03:38:13.499Z,22.47
2019-04-13T03:40:44.951Z,23.43
2019-04-13T03:43:16.910Z,26.50
2019-04-13T03:45:55.837Z,22.30
2019-04-13T03:48:26.578Z,20.33
2019-04-13T03:50:57.931Z,21.13
2019-04-13T03:53:28.544Z,21.90
2019-04-13T03:55:58.767Z,22.53
2019-04-13T03:58:29.168Z,21.83
2019-04-13T04:00:59.327Z,20.17
2019-04-13T04:03:30.043Z,22.00
2019-04-13T04:06:11.206Z,22.17
2019-04-13T04:08:31.929Z,21.97
2019-04-13T04:11:01.836Z,19.20
2019-04-13T04:13:31.958Z,19.23
2019-04-13T04:16:01.776Z,20.57
2019-04-13T04:18:32.817Z,19.00
2019-04-13T04:21:02.412Z,18.97
2019-04-13T04:23:35.307Z,20.43
2019-04-13T04:33:03.006Z,20.00
2019-04-13T04:35:35.274Z,18.67
2019-04-13T04:38:08.577Z,19.63
2019-04-13T04:40:39.301Z,19.83
2019-04-13T04:43:09.826Z,19.30
2019-04-13T04:45:39.946Z,19.10
2019-04-13T04:48:11.805Z,19.33
2019-04-13T04:50:42.440Z,18.13
2019-04-13T04:53:13.071Z,18.83
2019-04-13T04:55:43.902Z,19.80
2019-04-13T04:58:14.126Z,18.97
2019-04-13T05:00:45.898Z,19.33
2019-04-13T05:03:25.216Z,18.27
2019-04-13T05:05:55.858Z,17.50
2019-04-13T05:08:25.765Z,27.20
2019-04-13T05:10:58.036Z,19.20
2019-04-13T05:13:28.457Z,38.77
2019-04-13T05:16:02.780Z,26.60
2019-04-13T05:18:33.507Z,22.33
2019-04-13T05:21:12.640Z,19.53
2019-04-13T05:23:51.877Z,18.97
2019-04-13T05:26:35.827Z,19.10
2019-04-13T05:29:15.356Z,31.40
2019-04-13T05:32:06.062Z,21.97
2019-04-13T05:34:38.848Z,25.13
2019-04-13T05:37:11.528Z,23.23
2019-04-13T05:39:42.878Z,24.80
2019-04-13T05:42:15.569Z,44.03
2019-04-13T05:44:46.021Z,26.17
2019-04-13T05:47:16.816Z,25.10
2019-04-13T05:49:47.439Z,25.07
2019-04-13T05:52:17.864Z,26.40
2019-04-13T05:54:48.348Z,23.47
2019-04-13T05:57:20.163Z,51.80
2019-04-13T05:59:50.905Z,21.77
2019-04-13T06:02:23.568Z,24.07
2019-04-13T06:04:54.299Z,34.93
2019-04-13T06:07:24.722Z,34.67
2019-04-13T06:09:55.763Z,27.80
2019-04-13T06:12:26.498Z,25.43
2019-04-13T06:14:56.816Z,23.20
2019-04-13T06:17:31.059Z,20.70
2019-04-13T06:20:01.567Z,21.67
2019-04-13T06:22:32.605Z,64.53
2019-04-13T06:25:02.827Z,34.10
2019-04-13T06:27:32.836Z,45.57
2019-04-13T06:30:05.309Z,26.50
2019-04-13T06:32:54.167Z,57.73
2019-04-13T06:35:31.172Z,50.60
2019-04-13T06:38:01.478Z,18.40
2019-04-13T06:40:31.791Z,59.70
2019-04-13T06:43:01.300Z,47.00
2019-04-13T06:45:31.408Z,39.43
2019-04-13T06:48:01.851Z,60.37
2019-04-13T06:50:31.756Z,26.77
2019-04-13T06:53:02.493Z,31.93
2019-04-13T06:55:32.819Z,19.43
2019-04-13T06:58:02.727Z,17.73
2019-04-13T07:00:32.845Z,18.70
2019-04-13T07:03:02.875Z,24.97
2019-04-13T07:05:32.776Z,23.20
2019-04-13T07:08:10.578Z,47.07
2019-04-13T07:10:59.741Z,19.33
2019-04-13T07:13:33.757Z,19.10
2019-04-13T07:16:12.986Z,20.10
2019-04-13T07:18:43.819Z,21.00
2019-04-13T07:21:13.735Z,21.70
2019-04-13T07:23:44.470Z,18.53
2019-04-13T07:26:14.596Z,19.13
2019-04-13T07:28:47.717Z,21.80
2019-04-13T07:31:17.391Z,19.80
2019-04-13T07:33:49.577Z,19.10
2019-04-13T07:36:22.751Z,19.33
2019-04-13T07:38:53.485Z,18.17
2019-04-13T07:41:25.249Z,18.37
2019-04-13T07:43:55.764Z,19.80
2019-04-13T07:46:44.932Z,19.80
2019-04-13T07:49:27.745Z,21.90
2019-04-13T07:52:16.603Z,19.33
2019-04-13T07:54:47.340Z,22.57
2019-04-13T07:57:17.878Z,20.33
2019-04-13T07:59:48.099Z,23.10
2019-04-13T08:02:20.153Z,20.40
2019-04-13T08:04:49.968Z,22.93
2019-04-13T08:07:19.975Z,20.13
2019-04-13T08:09:50.196Z,18.53
2019-04-13T08:12:21.135Z,18.70
2019-04-13T08:14:51.359Z,18.87
2019-04-13T08:17:37.349Z,26.17
2019-04-13T08:20:20.797Z,18.77
2019-04-13T08:22:51.518Z,23.47
2019-04-13T08:25:26.350Z,27.93
2019-04-13T08:28:00.359Z,18.77
2019-04-13T08:30:36.036Z,17.07
2019-04-13T08:33:11.554Z,17.57
2019-04-13T08:35:54.471Z,28.33
2019-04-13T08:38:34.832Z,18.83
2019-04-13T08:41:13.183Z,20.53
2019-04-13T08:43:45.424Z,19.00
2019-04-13T08:46:16.546Z,18.00
2019-04-13T08:48:49.020Z,18.87
2019-04-13T08:51:20.797Z,15.00
2019-04-13T08:53:55.304Z,15.57
2019-04-13T08:56:30.784Z,15.47
2019-04-13T08:58:59.976Z,15.43
2019-04-13T09:01:31.901Z,16.57
2019-04-13T09:04:01.922Z,14.67
2019-04-13T09:06:33.367Z,17.03
2019-04-13T09:09:05.544Z,15.20
2019-04-13T09:11:36.377Z,16.27
2019-04-13T09:14:12.640Z,15.83
2019-04-13T09:16:39.897Z,16.10
2019-04-13T09:19:29.371Z,16.00
2019-04-13T09:22:02.762Z,15.97
2019-04-13T09:24:32.978Z,17.63
2019-04-13T09:27:07.564Z,18.03
2019-04-13T09:29:38.743Z,19.73
2019-04-13T09:32:08.771Z,17.70
2019-04-13T09:34:38.784Z,18.73
2019-04-13T09:37:08.842Z,17.03
2019-04-13T09:39:39.018Z,20.97
2019-04-13T09:42:10.669Z,37.47
2019-04-13T09:44:41.923Z,17.20
2019-04-13T09:47:26.781Z,23.57
2019-04-13T09:49:59.984Z,17.80
2019-04-13T09:52:31.222Z,20.47
2019-04-13T09:55:00.724Z,17.30
2019-04-13T09:57:30.845Z,19.43
2019-04-13T10:00:05.312Z,18.43
2019-04-13T10:02:37.736Z,17.53
2019-04-13T10:05:08.469Z,20.17
2019-04-13T10:07:41.314Z,19.83
2019-04-13T10:10:13.289Z,20.07
2019-04-13T10:13:01.764Z,51.10
2019-04-13T10:15:51.846Z,21.53
2019-04-13T10:18:26.175Z,38.30
2019-04-13T10:20:57.111Z,28.30
2019-04-13T10:23:29.953Z,28.93
2019-04-13T10:25:59.912Z,35.93
2019-04-13T10:28:29.813Z,89.63
2019-04-13T10:30:59.728Z,24.20
2019-04-13T10:33:29.854Z,21.93
2019-04-13T10:35:59.763Z,22.53
2019-04-13T10:38:29.781Z,25.17
2019-04-13T10:40:59.806Z,22.73
2019-04-13T10:43:29.717Z,25.43
2019-04-13T10:46:06.485Z,27.33
2019-04-13T10:48:53.706Z,25.20
2019-04-13T10:51:42.462Z,25.63
2019-04-13T10:54:13.171Z,47.17
2019-04-13T10:56:43.309Z,22.17
2019-04-13T10:59:13.650Z,22.60
2019-04-13T11:01:43.560Z,21.80
2019-04-13T11:04:14.076Z,22.70
2019-04-13T11:06:43.997Z,26.10
2019-04-13T11:09:21.449Z,21.43
2019-04-13T11:11:49.044Z,22.47
2019-04-13T11:14:19.469Z,24.80
2019-04-13T11:16:49.783Z,19.70
2019-04-13T11:19:20.226Z,27.97
2019-04-13T11:21:50.749Z,29.07
2019-04-13T11:24:21.278Z,30.77
2019-04-13T11:26:52.932Z,31.53
2019-04-13T11:29:22.749Z,29.67
2019-04-13T11:31:55.053Z,46.93
2019-04-13T11:34:29.023Z,54.60
2019-04-13T11:36:56.171Z,73.43
2019-04-13T11:39:33.820Z,88.00
2019-04-13T11:42:17.260Z,28.80
2019-04-13T11:44:54.913Z,41.00
2019-04-13T11:47:33.107Z,23.80
2019-04-13T11:50:03.526Z,24.23
2019-04-13T11:52:34.566Z,21.73
2019-04-13T11:55:05.727Z,23.50
2019-04-13T11:57:35.838Z,23.73
2019-04-13T12:00:08.819Z,27.20
2019-04-13T12:02:42.627Z,23.73
2019-04-13T12:05:32.773Z,21.10
2019-04-13T12:08:09.793Z,24.00
2019-04-13T12:10:59.572Z,22.60
2019-04-13T12:13:49.145Z,22.20
2019-04-13T12:16:39.171Z,47.33
2019-04-13T12:19:29.018Z,29.37
2019-04-13T12:22:19.097Z,43.67
2019-04-13T12:24:51.055Z,25.23
2019-04-13T12:27:22.921Z,28.87
2019-04-13T12:29:55.028Z,25.50
2019-04-13T12:32:30.025Z,34.57
2019-04-13T12:35:00.346Z,32.97
2019-04-13T12:37:35.354Z,25.93
2019-04-13T12:40:18.296Z,37.23
2019-04-13T12:42:50.050Z,32.33
2019-04-13T12:45:21.707Z,79.20
2019-04-13T12:47:51.931Z,43.47
2019-04-13T12:50:23.598Z,36.17
2019-04-13T12:52:56.363Z,32.37
2019-04-13T12:55:28.120Z,44.10
2019-04-13T12:58:00.903Z,34.53
2019-04-13T13:00:51.561Z,31.53
2019-04-13T13:03:27.966Z,25.57
2019-04-13T13:06:00.343Z,34.10
2019-04-13T13:08:33.020Z,35.17
2019-04-13T13:11:05.097Z,23.13
2019-04-13T13:13:37.455Z,30.03
2019-04-13T13:19:15.880Z,34.30
2019-04-13T13:21:47.956Z,32.00
2019-04-13T13:24:20.142Z,31.60
2019-04-13T13:26:55.248Z,42.07
2019-04-13T13:29:35.118Z,40.33
2019-04-13T13:32:19.361Z,38.23
2019-04-13T13:34:52.048Z,44.77
2019-04-13T13:37:25.171Z,38.20
2019-04-13T13:39:58.516Z,40.40
2019-04-13T13:42:43.207Z,64.67
2019-04-13T13:45:15.046Z,31.57
2019-04-13T13:47:49.914Z,27.20
2019-04-13T13:50:22.749Z,26.53
2019-04-13T13:52:55.022Z,32.93
2019-04-13T13:55:27.107Z,37.60
2019-04-13T13:58:07.368Z,31.63
2019-04-13T14:00:55.077Z,45.13
2019-04-13T14:03:27.444Z,64.87
2019-04-13T14:06:09.031Z,69.00
2019-04-13T14:08:44.323Z,43.17
2019-04-13T14:11:15.107Z,46.77
2019-04-13T14:13:46.724Z,39.93
2019-04-13T14:16:20.056Z,32.37
2019-04-13T14:18:57.437Z,42.67
2019-04-13T14:21:27.584Z,34.63
2019-04-13T14:24:01.571Z,36.77
2019-04-13T14:26:34.652Z,48.60
2019-04-13T14:29:10.509Z,39.00
2019-04-13T14:31:42.075Z,34.30
2019-04-13T14:34:14.034Z,38.60
2019-04-13T14:36:55.105Z,39.90
2019-04-13T14:39:29.019Z,45.67
2019-04-13T14:42:01.502Z,40.33
2019-04-13T14:44:34.475Z,31.00
2019-04-13T14:47:10.195Z,32.67
2019-04-13T14:49:42.595Z,40.57
2019-04-13T14:52:16.811Z,26.30
2019-04-13T14:54:50.020Z,33.63
2019-04-13T14:57:23.298Z,46.03
2019-04-13T14:59:55.770Z,40.67
2019-04-13T15:02:27.177Z,24.00
2019-04-13T15:04:58.059Z,28.53
2019-04-13T15:07:30.480Z,54.57
2019-04-13T15:10:00.853Z,50.20
2019-04-13T15:12:31.799Z,54.67
2019-04-13T15:15:02.727Z,34.47
2019-04-13T15:17:39.135Z,34.60
2019-04-13T15:20:14.938Z,51.13
2019-04-13T15:22:40.907Z,31.07
2019-04-13T15:25:18.570Z,28.03
2019-04-13T15:27:56.229Z,33.23
2019-04-13T15:30:26.938Z,26.60
2019-04-13T15:33:02.760Z,23.23
2019-04-13T15:35:32.452Z,28.33
2019-04-13T15:38:04.778Z,39.93
2019-04-13T15:40:39.159Z,32.57
2019-04-13T15:43:18.432Z,34.10
2019-04-13T15:45:55.563Z,39.03
2019-04-13T15:48:32.495Z,26.40
2019-04-13T15:51:05.245Z,28.63
2019-04-13T15:53:36.870Z,31.27
2019-04-13T15:56:08.947Z,47.27
2019-04-13T15:58:41.117Z,38.53
2019-04-13T16:01:15.269Z,41.23
2019-04-13T16:03:49.024Z,32.23
2019-04-13T16:06:21.597Z,45.37
2019-04-13T16:09:11.960Z,37.87
2019-04-13T16:11:52.760Z,45.03
2019-04-13T16:14:22.448Z,33.63
2019-04-13T16:16:54.942Z,35.77
2019-04-13T16:19:28.053Z,55.77
2019-04-13T16:21:58.971Z,41.80
2019-04-13T16:24:33.047Z,36.77
2019-04-13T16:27:05.703Z,48.33
2019-04-13T16:29:53.598Z,33.03
2019-04-13T16:32:44.843Z,91.40
2019-04-13T16:35:34.600Z,110.13
2019-04-13T16:38:11.253Z,120.53
2019-04-13T16:40:45.658Z,72.73
2019-04-13T16:43:22.279Z,47.10
2019-04-13T16:46:07.299Z,31.07
2019-04-13T16:49:04.983Z,56.83
2019-04-13T16:51:41.553Z,40.50
2019-04-13T16:54:44.079Z,41.93
2019-04-13T16:57:17.289Z,38.57
2019-04-13T17:00:08.072Z,40.13
2019-04-13T17:02:58.989Z,69.27
2019-04-13T17:05:35.634Z,96.20
2019-04-13T17:08:07.808Z,48.30
2019-04-13T17:10:39.998Z,54.97
2019-04-13T17:13:28.353Z,64.57
2019-04-13T17:16:02.773Z,121.70
2019-04-13T17:18:53.183Z,38.87
2019-04-13T17:21:35.736Z,23.47
2019-04-13T17:24:28.218Z,25.63
2019-04-13T17:27:19.407Z,28.20
2019-04-13T17:30:13.162Z,27.93
2019-04-13T17:32:58.519Z,28.93
2019-04-13T17:35:32.345Z,35.83
2019-04-13T17:38:13.812Z,58.77
2019-04-13T17:40:55.670Z,32.80
2019-04-13T17:43:47.305Z,35.57
2019-04-13T17:46:38.596Z,26.37
2019-04-13T17:49:30.183Z,25.93
2019-04-13T17:52:21.204Z,24.13
2019-04-13T17:55:12.798Z,27.27
2019-04-13T17:58:03.093Z,58.20
2019-04-13T18:00:55.970Z,24.57
2019-04-13T18:03:43.470Z,28.97
2019-04-13T18:06:35.852Z,31.30
2019-04-13T18:09:28.656Z,26.33
2019-04-13T18:12:20.709Z,24.83
2019-04-13T18:15:10.369Z,34.13
2019-04-13T18:18:00.093Z,39.43
2019-04-13T18:20:39.071Z,29.37
2019-04-13T18:23:19.226Z,64.77
2019-04-13T18:26:02.542Z,28.70
2019-04-13T18:28:40.354Z,27.87
2019-04-13T18:31:13.337Z,47.13
2019-04-13T18:33:47.525Z,39.90
2019-04-13T18:36:21.347Z,48.13
2019-04-13T18:38:54.153Z,60.17
2019-04-13T18:41:29.205Z,63.63
2019-04-13T18:44:02.974Z,42.23
2019-04-13T18:46:40.534Z,51.77
2019-04-13T18:49:18.373Z,50.97
2019-04-13T18:51:56.694Z,40.20
2019-04-13T18:54:30.141Z,43.07
2019-04-13T18:57:04.829Z,44.80
2019-04-13T18:59:42.131Z,79.47
2019-04-13T19:02:24.866Z,53.97
2019-04-13T19:04:57.180Z,40.67
2019-04-13T19:07:35.500Z,30.33
2019-04-13T19:10:08.390Z,40.57
2019-04-13T19:12:45.765Z,31.10
2019-04-13T19:15:17.519Z,28.37
2019-04-13T19:17:54.916Z,27.60
2019-04-13T19:20:31.067Z,32.37
2019-04-13T19:23:10.717Z,23.87
2019-04-13T19:25:48.177Z,26.87
2019-04-13T19:28:21.392Z,25.83
2019-04-13T19:30:54.923Z,26.87
2019-04-13T19:33:33.407Z,27.23
2019-04-13T19:36:15.606Z,24.37
2019-04-13T19:38:50.713Z,21.83
2019-04-13T19:41:23.026Z,22.03
2019-04-13T19:43:58.562Z,23.80
2019-04-13T19:46:32.985Z,25.70
2019-04-13T19:49:07.810Z,21.77
2019-04-13T19:51:56.285Z,20.27
2019-04-13T19:54:29.754Z,19.17
2019-04-13T19:57:06.328Z,23.97
2019-04-13T19:59:39.992Z,18.97
2019-04-13T20:02:15.061Z,19.60
2019-04-13T20:04:51.945Z,22.43
2019-04-13T20:07:29.224Z,20.03
2019-04-13T20:10:03.652Z,20.20
2019-04-13T20:12:42.599Z,27.33
2019-04-13T20:15:20.778Z,24.83
2019-04-13T20:17:57.798Z,26.60
2019-04-13T20:20:31.075Z,22.03
2019-04-13T20:23:14.280Z,25.13
2019-04-13T20:25:48.342Z,24.63
2019-04-13T20:28:20.768Z,26.00
2019-04-13T20:30:56.255Z,26.43
2019-04-13T20:33:26.636Z,25.63
2019-04-13T20:36:07.398Z,33.43
2019-04-13T20:38:34.586Z,32.90
2019-04-13T20:41:13.380Z,30.60
2019-04-13T20:43:56.767Z,27.57
2019-04-13T20:46:23.510Z,28.07
2019-04-13T20:48:56.123Z,31.43
2019-04-13T20:51:32.009Z,37.67
2019-04-13T20:54:05.471Z,31.10
2019-04-13T20:56:40.618Z,31.13
2019-04-13T20:59:13.101Z,33.47
2019-04-13T21:01:48.017Z,40.33
2019-04-13T21:04:20.284Z,52.70
2019-04-13T21:06:52.110Z,73.23
2019-04-13T21:09:27.485Z,54.33
2019-04-13T21:11:59.549Z,72.77
2019-04-13T21:14:37.373Z,99.00
2019-04-13T21:17:04.878Z,58.43
2019-04-13T21:19:37.044Z,65.97
2019-04-13T21:22:09.450Z,48.03
2019-04-13T21:24:39.872Z,45.80
2019-04-13T21:27:11.627Z,58.33
2019-04-13T21:29:43.813Z,67.77
2019-04-13T21:32:16.117Z,41.07
2019-04-13T21:34:48.200Z,55.53
2019-04-13T21:37:20.412Z,51.77
2019-04-13T21:39:50.828Z,60.00
2019-04-13T21:42:22.581Z,89.20
2019-04-13T21:44:54.929Z,160.70
2019-04-13T21:47:25.407Z,82.93
2019-04-13T21:50:00.178Z,84.10
2019-04-13T21:52:41.814Z,207.40
2019-04-13T21:55:31.494Z,96.77
2019-04-13T21:58:01.924Z,63.53
2019-04-13T22:00:53.134Z,53.53
2019-04-13T22:03:23.540Z,57.93
2019-04-13T22:05:55.168Z,43.07
2019-04-13T22:08:25.422Z,52.10
2019-04-13T22:10:57.270Z,47.53
2019-04-13T22:13:28.031Z,51.57
2019-04-13T22:15:59.480Z,42.23
2019-04-13T22:18:32.127Z,47.47
2019-04-13T22:21:03.086Z,51.57
2019-04-13T22:23:34.519Z,47.53
2019-04-13T22:26:06.657Z,59.27
2019-04-13T22:28:43.122Z,51.17
2019-04-13T22:31:28.966Z,45.80
2019-04-13T22:34:01.099Z,46.10
2019-04-13T22:36:35.331Z,46.43
2019-04-13T22:39:07.606Z,52.07
2019-04-13T22:41:39.438Z,49.23
2019-04-13T22:44:09.999Z,48.87
2019-04-13T22:46:41.406Z,47.47
2019-04-13T22:49:18.820Z,48.63
2019-04-13T22:52:08.271Z,45.47
2019-04-13T22:54:52.369Z,45.57
2019-04-13T22:57:28.182Z,47.87
2019-04-13T22:59:59.723Z,47.57
2019-04-13T23:02:38.884Z,51.40
2019-04-13T23:05:13.135Z,54.00
2019-04-13T23:07:45.717Z,53.93
2019-04-13T23:10:35.309Z,44.00
2019-04-13T23:13:32.103Z,46.57
2019-04-13T23:16:17.280Z,48.10
2019-04-13T23:18:49.314Z,46.60
2019-04-13T23:21:20.786Z,52.33
2019-04-13T23:23:51.509Z,55.47
2019-04-13T23:26:26.069Z,49.43
2019-04-13T23:28:57.590Z,45.33
2019-04-13T23:31:30.409Z,54.33
2019-04-13T23:34:01.004Z,49.13
2019-04-13T23:36:33.184Z,45.80
2019-04-13T23:39:10.576Z,40.20
2019-04-13T23:41:40.815Z,47.00
2019-04-13T23:44:13.356Z,44.23
2019-04-13T23:46:44.051Z,40.97
2019-04-13T23:49:15.052Z,42.50
2019-04-13T23:51:45.379Z,44.53
2019-04-13T23:54:15.775Z,38.60
2019-04-13T23:57:05.247Z,41.90
2019-04-13T23:59:47.894Z,42.77
